Airfield :
LOGIN :

Register | Disclaimer

   EN    FR    IT 

 










Legend :    VFR   Marginal VFR   IFR   Intensive IFR   Very Intensive IFR
Visi :
Ceiling :
>= 8 km
>= 3000ft
5 to 8 km
1000 to 3000 ft
1500m to 5 km
500 to 1000 ft
800 to 1500m
200 to 500 ft
< 800m
< 200 ft
Symbols :   Thunderstorms  Fog  Heavy snow  Heavy precipitations  Wind > 20 kt
SIGMETs :     Misc.  Thunderstorms  Icing  Turbulence  Mountain Waves  Volcanic Ashes






- Airport Elevation : 102 ft
- IATA code : CNG


LFBG - Cognac

CURRENT METAR :
  • 130530Z AUTO 28018KT 9999 FEW048/// BKN064/// BKN078/// ///TCU 11/08 Q0993

EXPIRED METARs :
  • 130500Z AUTO 29019KT 9999 FEW021/// BKN037/// BKN046/// ///TCU 11/07 Q0992
  • 130430Z AUTO 30030G42KT 270V330 7000 -RA FEW020/// BKN030/// BKN043/// ///TCU 11/08 Q0992
  • 130400Z AUTO 28029G42KT 9999 -RA FEW023/// BKN043/// BKN076/// ///CB 13/10 Q0991
  • 130330Z AUTO 26022G32KT 9999 BKN014/// BKN024/// BKN045/// ///CB 12/11 Q0990
  • 130300Z AUTO 28019KT 3700 RA BR BKN014/// BKN027/// BKN043/// ///CB 12/11 Q0991

TAF TAF LFBG
Valid from the 12 at 15:00 until the 13 at 15:00 UTC


121400Z 1215/1315 19016G26KT 4000 RA BKN010
PROB40
TEMPO 1215/1218 19018G35KT 2000 +RA BKN007 BKN015CB
TEMPO 1218/1309 3000 SHRA SCT015CB BKN020



MET'MAP, your aeronautical weather chart ! - Copyright ORBIFLY December 2007 - Disclaimer

ORBIFLY MET'MAP TEAM :

Programming & Development : Alexandra Zaïnal
Concept & original design : Baudouin d'Aumeries
Assistance for programming : Marc-Olivier Méhu
Technical & hardware support : Manuel Goepfert

Contact : metmap@orbifly.com




SOURCES & CREDITS :

   NOAA